Time;durP1;ratioP1;P1;durP2;ratioP2;P2;SDS_P1;SDS_P2;PMS_P1;PMS_P2;Temp;Humidity;BMP_temperature;BMP_pressure;BME280_temperature;BME280_humidity;BME280_pressure;Samples;Min_cycle;Max_cycle;Signal;HPM_P1;HPM_P2
2022/04/13 00:02:08;;;;;;;5.70;5.17;;;;;;;;;;5035588;28;20456;-79
2022/04/13 00:04:34;;;;;;;5.33;4.83;;;;;;;;;;5035198;28;20979;-79
2022/04/13 00:07:01;;;;;;;9.40;5.00;;;;;;;;;;5035189;28;20442;-64
2022/04/13 00:09:27;;;;;;;7.10;5.07;;;;;;;;;;5035089;28;20411;-78
2022/04/13 00:11:54;;;;;;;8.63;5.10;;;;;;;;;;5035159;28;20805;-73
2022/04/13 00:14:23;;;;;;;5.97;4.83;;;;;;;;;;5035048;28;20960;-78
2022/04/13 00:16:54;;;;;;;6.20;5.30;;;;;;;;;;5035063;28;20913;-63
2022/04/13 00:19:21;;;;;;;6.90;4.60;;;;;;;;;;5035030;28;20482;-63
2022/04/13 00:21:47;;;;;;;5.43;4.87;;;;;;;;;;5034971;28;20453;-63
2022/04/13 00:24:13;;;;;;;5.97;4.93;;;;;;;;;;5034816;28;20437;-78
2022/04/13 00:26:40;;;;;;;5.60;5.10;;;;;;;;;;5035051;28;20402;-63
2022/04/13 00:29:06;;;;;;;5.07;4.20;;;;;;;;;;5034619;28;20406;-63
2022/04/13 00:31:32;;;;;;;5.03;4.23;;;;;;;;;;5034727;28;20410;-64
2022/04/13 00:33:58;;;;;;;6.67;4.60;;;;;;;;;;5034628;28;20983;-63
2022/04/13 00:36:24;;;;;;;5.63;4.20;;;;;;;;;;5034758;28;20402;-64
2022/04/13 00:38:50;;;;;;;6.07;4.50;;;;;;;;;;5033393;28;20461;-65
2022/04/13 00:41:21;;;;;;;4.90;4.33;;;;;;;;;;5034476;28;20454;-64
2022/04/13 00:44:00;;;;;;;4.87;4.30;;;;;;;;;;5034586;28;20497;-64
2022/04/13 00:46:27;;;;;;;4.73;4.33;;;;;;;;;;5034479;28;20410;-64
2022/04/13 00:48:53;;;;;;;4.73;4.33;;;;;;;;;;5034417;28;20447;-64
2022/04/13 00:51:19;;;;;;;4.93;4.43;;;;;;;;;;5034253;28;20496;-64
2022/04/13 00:53:46;;;;;;;5.03;4.43;;;;;;;;;;5034235;28;20812;-64
2022/04/13 00:56:12;;;;;;;4.93;4.20;;;;;;;;;;5033165;28;20426;-64
2022/04/13 00:58:40;;;;;;;5.70;4.20;;;;;;;;;;5034266;28;20403;-64
2022/04/13 01:01:07;;;;;;;4.80;4.30;;;;;;;;;;5034182;28;20422;-64
2022/04/13 01:03:36;;;;;;;4.67;4.27;;;;;;;;;;5034095;28;20398;-64
2022/04/13 01:06:02;;;;;;;4.70;4.30;;;;;;;;;;5034102;28;20806;-64
2022/04/13 01:08:29;;;;;;;5.00;4.40;;;;;;;;;;5034187;28;20418;-64
2022/04/13 01:10:55;;;;;;;9.83;5.53;;;;;;;;;;5033974;28;20422;-67
2022/04/13 01:13:21;;;;;;;5.97;4.53;;;;;;;;;;5033917;28;21027;-64
2022/04/13 01:15:47;;;;;;;5.63;4.30;;;;;;;;;;5034021;28;20415;-64
2022/04/13 01:18:14;;;;;;;6.00;4.73;;;;;;;;;;5033770;28;20498;-64
2022/04/13 01:20:48;;;;;;;6.60;4.53;;;;;;;;;;5033017;28;20807;-71
2022/04/13 01:23:14;;;;;;;5.70;4.43;;;;;;;;;;5033851;28;20888;-64
2022/04/13 01:25:47;;;;;;;5.80;4.33;;;;;;;;;;5033881;28;20496;-64
2022/04/13 01:28:13;;;;;;;5.17;4.50;;;;;;;;;;5033781;28;20402;-64
2022/04/13 01:30:39;;;;;;;6.80;4.43;;;;;;;;;;5033688;28;20422;-64
2022/04/13 01:33:05;;;;;;;8.40;4.07;;;;;;;;;;5033623;28;20402;-64
2022/04/13 01:35:31;;;;;;;7.80;3.93;;;;;;;;;;5033507;28;20419;-64
2022/04/13 01:37:57;;;;;;;4.73;4.30;;;;;;;;;;5032093;28;20430;-64
2022/04/13 01:40:23;;;;;;;4.50;4.10;;;;;;;;;;5033493;28;20440;-63
2022/04/13 01:42:49;;;;;;;6.43;4.97;;;;;;;;;;5033509;28;20418;-63
2022/04/13 01:45:19;;;;;;;7.60;4.97;;;;;;;;;;5033476;28;20460;-63
2022/04/13 01:47:48;;;;;;;5.77;4.50;;;;;;;;;;5033391;28;20422;-63
2022/04/13 01:50:16;;;;;;;5.77;4.67;;;;;;;;;;5033212;28;20827;-63
2022/04/13 01:52:42;;;;;;;6.57;5.10;;;;;;;;;;5033387;28;20516;-63
2022/04/13 01:55:08;;;;;;;6.07;4.73;;;;;;;;;;5033351;28;20987;-63
2022/04/13 01:57:35;;;;;;;5.40;4.90;;;;;;;;;;5033221;28;20947;-64
2022/04/13 02:00:01;;;;;;;5.73;4.53;;;;;;;;;;5033334;28;20406;-63
2022/04/13 02:02:27;;;;;;;5.20;4.30;;;;;;;;;;5033316;28;20426;-64
2022/04/13 02:04:54;;;;;;;7.77;4.50;;;;;;;;;;5032992;28;20457;-63
2022/04/13 02:07:20;;;;;;;6.03;3.83;;;;;;;;;;5033118;28;20905;-63
2022/04/13 02:09:46;;;;;;;5.10;3.90;;;;;;;;;;5032932;28;20425;-63
2022/04/13 02:12:12;;;;;;;6.50;4.97;;;;;;;;;;5033077;28;20790;-63
2022/04/13 02:14:38;;;;;;;9.73;4.40;;;;;;;;;;5032964;28;20524;-63
2022/04/13 02:17:04;;;;;;;5.50;4.43;;;;;;;;;;5033053;28;20402;-63
2022/04/13 02:19:30;;;;;;;9.17;5.03;;;;;;;;;;5033086;28;20849;-63
2022/04/13 02:21:56;;;;;;;5.67;4.93;;;;;;;;;;5033080;28;20505;-63
2022/04/13 02:24:22;;;;;;;5.50;5.00;;;;;;;;;;5033025;28;20484;-63
2022/04/13 02:26:48;;;;;;;7.53;4.70;;;;;;;;;;5033026;28;20406;-63
2022/04/13 02:29:14;;;;;;;5.97;4.50;;;;;;;;;;5032903;28;20476;-64
2022/04/13 02:31:40;;;;;;;5.37;4.87;;;;;;;;;;5033081;28;20395;-63
2022/04/13 02:34:07;;;;;;;6.33;5.10;;;;;;;;;;5032946;28;20508;-63
2022/04/13 02:36:33;;;;;;;4.50;4.10;;;;;;;;;;5032977;28;20494;-63
2022/04/13 02:38:59;;;;;;;5.57;4.63;;;;;;;;;;5032957;28;20417;-63
2022/04/13 02:41:25;;;;;;;7.20;4.70;;;;;;;;;;5032924;28;20406;-64
2022/04/13 02:43:51;;;;;;;5.20;4.70;;;;;;;;;;5032993;28;20671;-64
2022/04/13 02:46:17;;;;;;;6.63;4.53;;;;;;;;;;5032982;28;20402;-64
2022/04/13 02:48:43;;;;;;;8.90;4.57;;;;;;;;;;5034174;28;20421;-64
2022/04/13 02:51:09;;;;;;;6.30;4.30;;;;;;;;;;5036695;28;20755;-63
2022/04/13 02:53:35;;;;;;;5.67;4.03;;;;;;;;;;5036522;28;20540;-64
2022/04/13 02:56:01;;;;;;;5.57;4.27;;;;;;;;;;5035405;28;20426;-64
2022/04/13 02:58:27;;;;;;;7.27;5.03;;;;;;;;;;5036469;28;20415;-63
2022/04/13 03:00:54;;;;;;;7.50;3.77;;;;;;;;;;5036407;28;20430;-63
2022/04/13 03:03:21;;;;;;;7.33;5.33;;;;;;;;;;5036472;28;20414;-63
2022/04/13 03:05:47;;;;;;;7.80;4.53;;;;;;;;;;5036291;28;20462;-63
2022/04/13 03:08:13;;;;;;;4.67;3.90;;;;;;;;;;5035831;28;20422;-63
2022/04/13 03:10:39;;;;;;;5.23;4.37;;;;;;;;;;5036318;28;20853;-63
2022/04/13 03:13:06;;;;;;;5.20;4.70;;;;;;;;;;5036169;28;20497;-63
2022/04/13 03:15:32;;;;;;;4.97;4.20;;;;;;;;;;5036273;28;20430;-63
2022/04/13 03:17:58;;;;;;;6.00;4.40;;;;;;;;;;5036217;28;20402;-77
2022/04/13 03:20:24;;;;;;;7.60;4.87;;;;;;;;;;5036193;28;20414;-63
2022/04/13 03:22:50;;;;;;;6.73;4.73;;;;;;;;;;5036087;28;20418;-64
2022/04/13 03:25:17;;;;;;;6.03;4.23;;;;;;;;;;5036044;28;20425;-78
2022/04/13 03:27:43;;;;;;;7.40;4.20;;;;;;;;;;5035835;28;20398;-64
2022/04/13 03:30:09;;;;;;;4.90;3.90;;;;;;;;;;5035972;28;20433;-63
2022/04/13 03:32:36;;;;;;;6.67;4.83;;;;;;;;;;5035931;28;20407;-64
2022/04/13 03:35:02;;;;;;;6.13;4.53;;;;;;;;;;5035751;28;20458;-63
2022/04/13 03:37:28;;;;;;;4.70;4.20;;;;;;;;;;5035778;28;20399;-63
2022/04/13 03:39:54;;;;;;;5.70;4.30;;;;;;;;;;5035765;28;20424;-63
2022/04/13 03:42:20;;;;;;;5.40;4.67;;;;;;;;;;5035615;28;20472;-63
2022/04/13 03:44:46;;;;;;;5.03;3.77;;;;;;;;;;5035709;28;20414;-63
2022/04/13 03:47:12;;;;;;;6.47;4.57;;;;;;;;;;5035519;28;20497;-63
2022/04/13 03:49:38;;;;;;;6.87;4.17;;;;;;;;;;5035549;28;20460;-63
2022/04/13 03:52:04;;;;;;;5.53;4.70;;;;;;;;;;5035485;28;20426;-64
2022/04/13 03:54:30;;;;;;;5.30;4.30;;;;;;;;;;5035510;28;20470;-63
2022/04/13 03:56:56;;;;;;;5.70;4.00;;;;;;;;;;5035362;28;20751;-63
2022/04/13 03:59:22;;;;;;;6.80;4.60;;;;;;;;;;5035006;28;20489;-63
2022/04/13 04:01:48;;;;;;;5.53;4.07;;;;;;;;;;5035390;28;20407;-64
2022/04/13 04:04:14;;;;;;;5.47;4.00;;;;;;;;;;5035083;28;20458;-64
2022/04/13 04:06:40;;;;;;;7.00;5.00;;;;;;;;;;5035174;28;20411;-63
2022/04/13 04:09:06;;;;;;;5.30;4.13;;;;;;;;;;5035079;28;20886;-63
2022/04/13 04:11:32;;;;;;;6.97;4.87;;;;;;;;;;5035303;28;20405;-64
2022/04/13 04:13:58;;;;;;;11.63;4.20;;;;;;;;;;5035021;28;20458;-64
2022/04/13 04:16:24;;;;;;;4.53;4.10;;;;;;;;;;5035161;28;20411;-63
2022/04/13 04:18:50;;;;;;;5.63;4.13;;;;;;;;;;5035085;28;20402;-64
2022/04/13 04:21:16;;;;;;;4.83;4.33;;;;;;;;;;5034893;28;20496;-63
2022/04/13 04:23:43;;;;;;;4.73;4.23;;;;;;;;;;5034876;28;20898;-63
2022/04/13 04:26:09;;;;;;;4.83;4.33;;;;;;;;;;5034808;28;20407;-64
2022/04/13 04:28:35;;;;;;;4.53;4.13;;;;;;;;;;5034700;28;20463;-63
2022/04/13 04:31:02;;;;;;;5.40;4.20;;;;;;;;;;5034787;28;20761;-63
2022/04/13 04:33:28;;;;;;;5.83;4.53;;;;;;;;;;5034711;28;20553;-63
2022/04/13 04:35:54;;;;;;;5.10;4.10;;;;;;;;;;5034673;28;20477;-63
2022/04/13 04:38:20;;;;;;;6.80;3.90;;;;;;;;;;5034610;28;20411;-63
2022/04/13 04:40:47;;;;;;;8.10;4.60;;;;;;;;;;5034635;28;20426;-63
2022/04/13 04:43:13;;;;;;;4.70;3.80;;;;;;;;;;5034608;28;20931;-63
2022/04/13 04:45:39;;;;;;;4.60;4.00;;;;;;;;;;5034471;28;20758;-63
2022/04/13 04:48:05;;;;;;;4.13;3.70;;;;;;;;;;5034393;28;20500;-63
2022/04/13 04:50:31;;;;;;;6.90;5.00;;;;;;;;;;5034508;28;20402;-62
2022/04/13 04:52:58;;;;;;;7.53;4.47;;;;;;;;;;5034281;28;20431;-63
2022/04/13 04:55:24;;;;;;;5.60;4.30;;;;;;;;;;5033016;28;20477;-63
2022/04/13 04:57:50;;;;;;;6.00;4.73;;;;;;;;;;5034341;28;20486;-63
2022/04/13 05:00:20;;;;;;;7.10;4.20;;;;;;;;;;5034207;28;20415;-63
2022/04/13 05:02:49;;;;;;;7.60;4.47;;;;;;;;;;5034101;28;20402;-62
2022/04/13 05:05:16;;;;;;;15.93;5.00;;;;;;;;;;5033962;28;20524;-64
2022/04/13 05:07:42;;;;;;;6.97;4.80;;;;;;;;;;5033997;28;20420;-64
2022/04/13 05:10:09;;;;;;;8.10;5.17;;;;;;;;;;5034019;28;20435;-64
2022/04/13 05:12:45;;;;;;;7.87;5.27;;;;;;;;;;5033391;28;20407;-64
2022/04/13 05:15:12;;;;;;;8.47;5.17;;;;;;;;;;5033901;28;20493;-64
2022/04/13 05:17:38;;;;;;;9.97;5.20;;;;;;;;;;5033851;28;20402;-64
2022/04/13 05:20:05;;;;;;;8.07;5.40;;;;;;;;;;5033881;28;20497;-64
2022/04/13 05:22:31;;;;;;;6.83;5.20;;;;;;;;;;5033688;28;20834;-64
2022/04/13 05:25:01;;;;;;;8.93;5.60;;;;;;;;;;5033790;28;20411;-64
2022/04/13 05:27:27;;;;;;;9.53;5.67;;;;;;;;;;5033429;28;20901;-64
2022/04/13 05:29:53;;;;;;;10.70;5.30;;;;;;;;;;5032383;28;20410;-65
2022/04/13 05:32:19;;;;;;;8.07;5.47;;;;;;;;;;5033534;28;20551;-65
2022/04/13 05:34:45;;;;;;;8.57;5.77;;;;;;;;;;5033508;28;20461;-63
2022/04/13 05:37:11;;;;;;;9.07;5.80;;;;;;;;;;5033379;28;20425;-63
2022/04/13 05:39:38;;;;;;;6.10;5.20;;;;;;;;;;5033432;28;20496;-63
2022/04/13 05:42:04;;;;;;;8.27;5.27;;;;;;;;;;5033381;28;20401;-63
2022/04/13 05:44:30;;;;;;;9.43;6.00;;;;;;;;;;5033359;28;20422;-63
2022/04/13 05:46:56;;;;;;;6.90;5.43;;;;;;;;;;5033107;28;20406;-63
2022/04/13 05:49:22;;;;;;;6.27;5.33;;;;;;;;;;5033242;28;20572;-63
2022/04/13 05:51:48;;;;;;;8.10;5.37;;;;;;;;;;5032991;28;20426;-63
2022/04/13 05:54:16;;;;;;;8.03;6.10;;;;;;;;;;5033056;28;20588;-64
2022/04/13 05:56:42;;;;;;;7.17;5.53;;;;;;;;;;5033147;28;20899;-64
2022/04/13 05:59:08;;;;;;;8.03;6.17;;;;;;;;;;5033172;28;20410;-63
2022/04/13 06:01:34;;;;;;;7.50;5.30;;;;;;;;;;5033062;28;20406;-63
2022/04/13 06:04:00;;;;;;;8.23;5.53;;;;;;;;;;5032880;28;20464;-63
2022/04/13 06:06:28;;;;;;;8.83;5.50;;;;;;;;;;5033016;28;20433;-64
2022/04/13 06:08:54;;;;;;;7.20;4.90;;;;;;;;;;5032953;28;20541;-64
2022/04/13 06:11:20;;;;;;;6.00;5.00;;;;;;;;;;5033101;28;20497;-63
2022/04/13 06:13:46;;;;;;;8.53;5.83;;;;;;;;;;5032835;28;20930;-63
2022/04/13 06:16:12;;;;;;;6.70;5.87;;;;;;;;;;5031739;28;20442;-64
2022/04/13 06:18:38;;;;;;;8.33;6.20;;;;;;;;;;5031761;28;20402;-69
2022/04/13 06:21:04;;;;;;;12.63;6.87;;;;;;;;;;5032832;28;20422;-63
2022/04/13 06:23:30;;;;;;;7.80;6.30;;;;;;;;;;5035881;28;20507;-77
2022/04/13 06:25:56;;;;;;;8.07;6.43;;;;;;;;;;5037089;28;20398;-64
2022/04/13 06:28:22;;;;;;;10.00;6.70;;;;;;;;;;5036854;28;20490;-77
2022/04/13 06:30:48;;;;;;;9.03;7.27;;;;;;;;;;5036917;28;20493;-64
2022/04/13 06:33:14;;;;;;;8.43;7.20;;;;;;;;;;5036820;28;20464;-65
2022/04/13 06:35:40;;;;;;;12.00;6.23;;;;;;;;;;5036934;28;20426;-64
2022/04/13 06:38:06;;;;;;;8.13;6.40;;;;;;;;;;5036719;28;20426;-68
2022/04/13 06:40:32;;;;;;;8.70;7.10;;;;;;;;;;5036845;28;20435;-64
2022/04/13 06:42:58;;;;;;;10.63;6.87;;;;;;;;;;5036614;28;20742;-65
2022/04/13 06:45:24;;;;;;;10.83;6.97;;;;;;;;;;5036675;28;20398;-65
2022/04/13 06:47:50;;;;;;;11.57;7.13;;;;;;;;;;5035239;28;20410;-69
2022/04/13 06:50:16;;;;;;;10.17;6.97;;;;;;;;;;5036547;28;20521;-69
2022/04/13 06:52:42;;;;;;;14.57;8.00;;;;;;;;;;5036449;28;20928;-73
2022/04/13 06:55:09;;;;;;;11.17;7.03;;;;;;;;;;5036560;28;21070;-77
2022/04/13 06:57:37;;;;;;;9.67;7.27;;;;;;;;;;5036497;28;20824;-72
2022/04/13 07:00:04;;;;;;;11.00;6.83;;;;;;;;;;5036529;28;20410;-71
2022/04/13 07:02:30;;;;;;;11.27;7.90;;;;;;;;;;5036479;28;20402;-77
2022/04/13 07:04:56;;;;;;;9.63;6.80;;;;;;;;;;5036152;28;20472;-77
2022/04/13 07:07:22;;;;;;;13.67;7.33;;;;;;;;;;5036165;28;20441;-78
2022/04/13 07:09:48;;;;;;;9.13;7.90;;;;;;;;;;5036111;28;20426;-70
2022/04/13 07:12:14;;;;;;;15.43;8.30;;;;;;;;;;5036244;28;20442;-64
2022/04/13 07:14:41;;;;;;;15.53;7.90;;;;;;;;;;5034871;28;20470;-77
2022/04/13 07:17:09;;;;;;;14.07;8.17;;;;;;;;;;5035970;28;20476;-73
2022/04/13 07:19:35;;;;;;;15.20;6.60;;;;;;;;;;5036047;28;20964;-77
2022/04/13 07:22:01;;;;;;;11.77;6.10;;;;;;;;;;5035792;28;20983;-73
2022/04/13 07:24:27;;;;;;;11.00;7.97;;;;;;;;;;5036057;28;20433;-76
2022/04/13 07:26:54;;;;;;;11.63;7.97;;;;;;;;;;5035975;28;20402;-78
2022/04/13 07:29:20;;;;;;;9.30;7.57;;;;;;;;;;5035742;28;20415;-79
2022/04/13 07:31:46;;;;;;;10.77;7.13;;;;;;;;;;5035727;28;20411;-73
2022/04/13 07:34:12;;;;;;;14.83;7.90;;;;;;;;;;5034965;28;20917;-67
2022/04/13 07:36:38;;;;;;;15.43;8.70;;;;;;;;;;5035794;28;20410;-76
2022/04/13 07:39:04;;;;;;;15.63;7.80;;;;;;;;;;5035660;28;20399;-74
2022/04/13 07:41:30;;;;;;;9.60;7.17;;;;;;;;;;5035610;28;20425;-76
2022/04/13 07:43:57;;;;;;;15.73;8.07;;;;;;;;;;5035720;28;20441;-64
2022/04/13 07:46:27;;;;;;;12.77;8.17;;;;;;;;;;5035542;28;20418;-78
2022/04/13 07:48:53;;;;;;;12.97;8.27;;;;;;;;;;5035478;28;20415;-70
2022/04/13 07:51:19;;;;;;;14.53;8.40;;;;;;;;;;5035317;28;20414;-65
2022/04/13 07:53:45;;;;;;;16.53;8.60;;;;;;;;;;5035352;28;20470;-66
2022/04/13 07:56:11;;;;;;;16.37;7.63;;;;;;;;;;5035564;28;20417;-78
2022/04/13 07:58:37;;;;;;;16.30;8.70;;;;;;;;;;5035379;28;20414;-65
2022/04/13 08:01:03;;;;;;;12.83;8.73;;;;;;;;;;5035357;28;20398;-66
2022/04/13 08:03:29;;;;;;;10.70;7.70;;;;;;;;;;5035353;28;20464;-77
2022/04/13 08:05:55;;;;;;;11.77;7.63;;;;;;;;;;5034966;28;20462;-77
2022/04/13 08:08:21;;;;;;;9.87;7.37;;;;;;;;;;5035037;28;20414;-72
2022/04/13 08:10:47;;;;;;;12.50;7.23;;;;;;;;;;5035252;28;20406;-65
2022/04/13 08:13:13;;;;;;;12.70;8.17;;;;;;;;;;5034995;28;20445;-78
2022/04/13 08:15:39;;;;;;;9.67;6.70;;;;;;;;;;5035122;28;20925;-76
2022/04/13 08:18:06;;;;;;;7.57;6.70;;;;;;;;;;5034933;28;20415;-65
2022/04/13 08:20:32;;;;;;;9.63;6.50;;;;;;;;;;5035054;28;20411;-66
2022/04/13 08:22:58;;;;;;;8.73;6.60;;;;;;;;;;5034904;28;20425;-67
2022/04/13 08:25:24;;;;;;;7.20;6.37;;;;;;;;;;5034897;28;20402;-65
2022/04/13 08:27:50;;;;;;;7.70;6.33;;;;;;;;;;5033488;28;20821;-77
2022/04/13 08:30:17;;;;;;;7.87;6.57;;;;;;;;;;5034710;28;20498;-74
2022/04/13 08:32:43;;;;;;;8.53;6.00;;;;;;;;;;5033632;28;20757;-76
2022/04/13 08:35:10;;;;;;;9.43;6.70;;;;;;;;;;5034641;28;20469;-77
2022/04/13 08:37:36;;;;;;;8.80;4.77;;;;;;;;;;5034625;28;20445;-76
2022/04/13 08:40:04;;;;;;;7.57;5.27;;;;;;;;;;5034446;28;20399;-71
2022/04/13 08:42:49;;;;;;;9.13;5.07;;;;;;;;;;5034505;28;20442;-72
2022/04/13 08:45:24;;;;;;;7.20;5.60;;;;;;;;;;5034131;28;20421;-73
2022/04/13 08:47:56;;;;;;;15.43;6.30;;;;;;;;;;5033855;28;20399;-69
2022/04/13 08:50:23;;;;;;;10.77;5.90;;;;;;;;;;5034416;28;20460;-77
2022/04/13 08:52:51;;;;;;;11.83;5.67;;;;;;;;;;5034275;28;20423;-71
2022/04/13 08:55:19;;;;;;;7.30;4.80;;;;;;;;;;5034199;28;20565;-68
2022/04/13 08:57:49;;;;;;;7.40;5.30;;;;;;;;;;5034262;28;20414;-77
2022/04/13 09:00:17;;;;;;;7.87;4.90;;;;;;;;;;5034243;28;20437;-76
2022/04/13 09:02:48;;;;;;;10.00;4.70;;;;;;;;;;5034040;28;20754;-69
2022/04/13 09:05:17;;;;;;;8.73;4.80;;;;;;;;;;5033879;28;20446;-67
2022/04/13 09:07:43;;;;;;;7.50;5.13;;;;;;;;;;5033924;28;20428;-76
2022/04/13 09:10:23;;;;;;;6.10;4.80;;;;;;;;;;5033971;28;20898;-67
2022/04/13 09:12:50;;;;;;;8.00;4.83;;;;;;;;;;5033873;28;20468;-73
2022/04/13 09:15:16;;;;;;;7.87;5.23;;;;;;;;;;5033727;28;20466;-78
2022/04/13 09:17:42;;;;;;;11.07;4.23;;;;;;;;;;5033800;28;20768;-73
2022/04/13 09:20:10;;;;;;;5.70;4.47;;;;;;;;;;5033776;28;20823;-78
2022/04/13 09:22:37;;;;;;;8.27;3.53;;;;;;;;;;5033655;28;20479;-76
2022/04/13 09:25:03;;;;;;;7.10;4.20;;;;;;;;;;5033700;28;20410;-67
2022/04/13 09:27:29;;;;;;;4.53;3.60;;;;;;;;;;5033602;28;20398;-71
2022/04/13 09:29:55;;;;;;;5.27;3.80;;;;;;;;;;5033622;28;20417;-74
2022/04/13 09:32:23;;;;;;;6.30;4.20;;;;;;;;;;5033560;28;20414;-74
2022/04/13 09:34:49;;;;;;;8.10;4.10;;;;;;;;;;5033440;28;20470;-72
2022/04/13 09:37:15;;;;;;;5.00;4.10;;;;;;;;;;5033495;28;20524;-76
2022/04/13 09:39:42;;;;;;;7.73;4.93;;;;;;;;;;5033338;28;20453;-76
2022/04/13 09:42:08;;;;;;;4.43;3.60;;;;;;;;;;5033468;28;20899;-76
2022/04/13 09:44:34;;;;;;;7.43;4.30;;;;;;;;;;5033408;28;20501;-74
2022/04/13 09:47:06;;;;;;;8.80;4.13;;;;;;;;;;5033139;28;20417;-77
2022/04/13 09:49:32;;;;;;;12.07;4.10;;;;;;;;;;5033182;28;20446;-77
2022/04/13 09:52:00;;;;;;;7.90;4.20;;;;;;;;;;5031930;28;20435;-70
2022/04/13 09:54:26;;;;;;;6.50;3.67;;;;;;;;;;5033161;28;20825;-73
2022/04/13 09:56:53;;;;;;;5.23;4.30;;;;;;;;;;5032729;28;20460;-75
2022/04/13 09:59:29;;;;;;;6.90;3.90;;;;;;;;;;5033155;28;20417;-71
2022/04/13 10:01:56;;;;;;;4.87;3.53;;;;;;;;;;5033189;28;20425;-73
2022/04/13 10:04:32;;;;;;;5.83;3.33;;;;;;;;;;5032882;28;20452;-77
2022/04/13 10:07:21;;;;;;;7.40;3.53;;;;;;;;;;5032948;28;20461;-70
2022/04/13 10:09:47;;;;;;;4.30;2.90;;;;;;;;;;5032898;28;20395;-69
2022/04/13 10:12:13;;;;;;;3.83;2.60;;;;;;;;;;5031696;28;20422;-73
2022/04/13 10:14:39;;;;;;;11.43;3.83;;;;;;;;;;5031661;28;21002;-72
2022/04/13 10:17:06;;;;;;;4.10;3.27;;;;;;;;;;5032997;28;20467;-67
2022/04/13 10:19:32;;;;;;;4.53;3.20;;;;;;;;;;5033026;28;20735;-74
2022/04/13 10:21:59;;;;;;;10.50;3.67;;;;;;;;;;5032764;28;20552;-67
2022/04/13 10:24:27;;;;;;;5.27;3.60;;;;;;;;;;5033056;28;20411;-71
2022/04/13 10:27:12;;;;;;;5.73;2.90;;;;;;;;;;5032877;28;20413;-76
2022/04/13 10:29:43;;;;;;;3.83;3.20;;;;;;;;;;5033032;28;20429;-75
2022/04/13 10:32:13;;;;;;;4.20;3.37;;;;;;;;;;5032897;28;20401;-73
2022/04/13 10:34:43;;;;;;;6.83;4.20;;;;;;;;;;5032855;28;20462;-75
2022/04/13 10:37:13;;;;;;;5.07;3.10;;;;;;;;;;5032773;28;20414;-77
2022/04/13 10:39:41;;;;;;;5.37;4.70;;;;;;;;;;5032760;28;20900;-68
2022/04/13 10:42:08;;;;;;;10.77;3.50;;;;;;;;;;5032849;28;20506;-75
2022/04/13 10:44:36;;;;;;;6.87;3.07;;;;;;;;;;5032806;28;20418;-77
2022/04/13 10:47:03;;;;;;;3.70;2.57;;;;;;;;;;5032564;28;20418;-77
2022/04/13 10:49:45;;;;;;;12.13;4.10;;;;;;;;;;5032733;28;20410;-76
2022/04/13 10:52:23;;;;;;;5.10;3.10;;;;;;;;;;5032693;28;20439;-75
2022/04/13 10:54:51;;;;;;;7.33;3.73;;;;;;;;;;5032657;28;20470;-76
2022/04/13 10:57:19;;;;;;;8.40;3.80;;;;;;;;;;5032690;28;20399;-73
2022/04/13 10:59:52;;;;;;;6.27;4.03;;;;;;;;;;5032667;28;20406;-76
2022/04/13 11:02:33;;;;;;;8.13;3.70;;;;;;;;;;5031466;28;20807;-76
2022/04/13 11:04:59;;;;;;;5.53;3.77;;;;;;;;;;5032515;28;20980;-77
2022/04/13 11:07:25;;;;;;;6.40;4.13;;;;;;;;;;5032596;28;20448;-68
2022/04/13 11:09:55;;;;;;;8.20;3.57;;;;;;;;;;5034184;28;20955;-77
2022/04/13 11:12:21;;;;;;;8.13;3.90;;;;;;;;;;5036347;28;20406;-75
2022/04/13 11:14:51;;;;;;;4.70;3.10;;;;;;;;;;5034875;28;20469;-76
2022/04/13 11:17:17;;;;;;;4.90;3.03;;;;;;;;;;5036040;28;20485;-76
2022/04/13 11:19:44;;;;;;;6.97;3.40;;;;;;;;;;5036034;28;20430;-78
2022/04/13 11:22:11;;;;;;;4.57;2.90;;;;;;;;;;5034600;28;20441;-72
2022/04/13 11:24:39;;;;;;;3.80;2.80;;;;;;;;;;5036050;28;20406;-69
2022/04/13 11:27:06;;;;;;;8.43;3.00;;;;;;;;;;5034473;28;20515;-78
2022/04/13 11:29:39;;;;;;;4.83;3.63;;;;;;;;;;5035835;28;20421;-74
2022/04/13 11:32:05;;;;;;;6.67;2.43;;;;;;;;;;5035903;28;20398;-74
2022/04/13 11:34:36;;;;;;;6.90;3.83;;;;;;;;;;5035640;28;20886;-76
2022/04/13 11:37:03;;;;;;;5.40;2.93;;;;;;;;;;5035751;28;20425;-72
2022/04/13 11:39:49;;;;;;;4.67;3.03;;;;;;;;;;5035833;28;20509;-71
2022/04/13 11:42:26;;;;;;;4.00;2.80;;;;;;;;;;5035611;28;20517;-67
2022/04/13 11:45:03;;;;;;;4.20;2.67;;;;;;;;;;5035684;28;20520;-68
2022/04/13 11:47:41;;;;;;;3.80;2.87;;;;;;;;;;5035387;28;20915;-77
2022/04/13 11:50:13;;;;;;;4.20;3.37;;;;;;;;;;5035594;28;20490;-71
2022/04/13 11:52:48;;;;;;;6.33;3.40;;;;;;;;;;5035516;28;20454;-70
2022/04/13 11:55:18;;;;;;;3.77;3.03;;;;;;;;;;5035273;28;20469;-77
2022/04/13 11:58:02;;;;;;;7.50;3.07;;;;;;;;;;5035146;28;20438;-71
2022/04/13 12:00:50;;;;;;;7.30;2.93;;;;;;;;;;5035226;28;20537;-68
2022/04/13 12:03:19;;;;;;;6.73;3.20;;;;;;;;;;5035249;28;20911;-77
2022/04/13 12:05:46;;;;;;;6.20;2.97;;;;;;;;;;5035092;28;20474;-76
2022/04/13 12:08:13;;;;;;;2.97;2.60;;;;;;;;;;5034952;28;20418;-74
2022/04/13 12:10:44;;;;;;;3.50;3.20;;;;;;;;;;5035148;28;20406;-73
2022/04/13 12:13:10;;;;;;;5.70;2.93;;;;;;;;;;5035299;28;20464;-73
2022/04/13 12:15:45;;;;;;;6.13;2.97;;;;;;;;;;5034891;28;20478;-76
2022/04/13 12:18:11;;;;;;;7.03;3.30;;;;;;;;;;5035053;28;20900;-71
2022/04/13 12:20:38;;;;;;;4.60;2.50;;;;;;;;;;5034804;28;20410;-75
2022/04/13 12:23:19;;;;;;;2.60;2.40;;;;;;;;;;5034881;28;20485;-70
2022/04/13 12:25:46;;;;;;;2.70;2.50;;;;;;;;;;5034740;28;20467;-72
2022/04/13 12:28:12;;;;;;;5.10;2.70;;;;;;;;;;5034576;28;20541;-68
2022/04/13 12:30:39;;;;;;;3.57;2.50;;;;;;;;;;5034593;28;20415;-66
2022/04/13 12:33:21;;;;;;;3.53;2.50;;;;;;;;;;5034648;28;20514;-77
2022/04/13 12:35:48;;;;;;;4.80;2.60;;;;;;;;;;5034423;28;20473;-75
2022/04/13 12:38:23;;;;;;;4.80;2.50;;;;;;;;;;5033675;28;20407;-73
2022/04/13 12:40:50;;;;;;;4.50;2.97;;;;;;;;;;5033781;28;20804;-72
2022/04/13 12:43:26;;;;;;;4.17;2.73;;;;;;;;;;5034146;28;20889;-77
2022/04/13 12:45:52;;;;;;;5.70;2.67;;;;;;;;;;5033307;28;20425;-77
2022/04/13 12:48:18;;;;;;;2.93;2.67;;;;;;;;;;5033986;28;20410;-77
2022/04/13 12:50:57;;;;;;;2.80;2.60;;;;;;;;;;5034494;28;20447;-70
2022/04/13 12:53:23;;;;;;;3.60;2.77;;;;;;;;;;5034240;28;20484;-75
2022/04/13 12:55:53;;;;;;;7.00;2.33;;;;;;;;;;5034215;28;20449;-73
2022/04/13 12:58:19;;;;;;;4.70;2.53;;;;;;;;;;5034094;28;20468;-76
2022/04/13 13:00:49;;;;;;;8.90;2.60;;;;;;;;;;5034246;28;20414;-76
2022/04/13 13:03:16;;;;;;;4.63;3.17;;;;;;;;;;5034109;28;20472;-76
2022/04/13 13:05:42;;;;;;;5.60;2.70;;;;;;;;;;5033965;28;20458;-76
2022/04/13 13:08:08;;;;;;;4.33;2.20;;;;;;;;;;5033919;28;20478;-75
2022/04/13 13:10:34;;;;;;;4.10;2.80;;;;;;;;;;5033958;28;20406;-67
2022/04/13 13:13:13;;;;;;;3.80;2.30;;;;;;;;;;5033843;28;20429;-75
2022/04/13 13:15:39;;;;;;;7.20;2.60;;;;;;;;;;5032725;28;20564;-78
2022/04/13 13:18:08;;;;;;;7.60;2.63;;;;;;;;;;5033772;28;20418;-77
2022/04/13 13:20:36;;;;;;;3.23;2.93;;;;;;;;;;5033673;28;20792;-76
2022/04/13 13:23:08;;;;;;;3.40;2.30;;;;;;;;;;5032335;28;20476;-77
2022/04/13 13:25:43;;;;;;;5.10;2.40;;;;;;;;;;5033848;28;20429;-77
2022/04/13 13:28:10;;;;;;;4.87;2.87;;;;;;;;;;5033571;28;20466;-73
2022/04/13 13:30:40;;;;;;;2.77;2.50;;;;;;;;;;5032418;28;20422;-69
2022/04/13 13:33:10;;;;;;;4.27;2.70;;;;;;;;;;5033062;28;20524;-76
2022/04/13 13:35:36;;;;;;;3.23;2.53;;;;;;;;;;5033621;28;20469;-68
2022/04/13 13:38:05;;;;;;;6.77;3.17;;;;;;;;;;5033412;28;20505;-68
2022/04/13 13:40:40;;;;;;;2.57;2.30;;;;;;;;;;5033390;28;20785;-78
2022/04/13 13:43:26;;;;;;;3.80;2.50;;;;;;;;;;5033523;28;20430;-72
2022/04/13 13:45:53;;;;;;;3.60;2.33;;;;;;;;;;5033325;28;20933;-72
2022/04/13 13:48:25;;;;;;;5.03;2.37;;;;;;;;;;5031966;28;20450;-72
2022/04/13 13:50:53;;;;;;;5.47;2.73;;;;;;;;;;5033351;28;20414;-76
2022/04/13 13:53:23;;;;;;;3.73;2.20;;;;;;;;;;5033309;28;20494;-71
2022/04/13 13:55:50;;;;;;;2.60;2.40;;;;;;;;;;5033254;28;20456;-74
2022/04/13 13:58:16;;;;;;;4.67;2.60;;;;;;;;;;5033143;28;20399;-66
2022/04/13 14:00:42;;;;;;;6.80;3.00;;;;;;;;;;5033027;28;20414;-74
2022/04/13 14:03:09;;;;;;;5.13;2.73;;;;;;;;;;5033125;28;20410;-78
2022/04/13 14:05:35;;;;;;;4.97;2.97;;;;;;;;;;5031619;28;20835;-77
2022/04/13 14:08:07;;;;;;;4.80;3.40;;;;;;;;;;5031773;28;20441;-66
2022/04/13 14:10:33;;;;;;;5.00;3.00;;;;;;;;;;5033163;28;20796;-77
2022/04/13 14:13:00;;;;;;;7.50;2.63;;;;;;;;;;5033063;28;20425;-76
2022/04/13 14:15:26;;;;;;;3.40;2.70;;;;;;;;;;5033078;28;21110;-76
2022/04/13 14:17:52;;;;;;;4.83;3.00;;;;;;;;;;5032889;28;20418;-73
2022/04/13 14:20:19;;;;;;;6.07;2.90;;;;;;;;;;5033083;28;20974;-77
2022/04/13 14:22:45;;;;;;;6.30;3.10;;;;;;;;;;5033032;28;20426;-77
2022/04/13 14:25:12;;;;;;;3.13;2.80;;;;;;;;;;5032972;28;20521;-77
2022/04/13 14:27:38;;;;;;;5.90;3.00;;;;;;;;;;5032891;28;20445;-71
2022/04/13 14:30:05;;;;;;;11.37;3.00;;;;;;;;;;5032794;28;20914;-72
2022/04/13 14:32:33;;;;;;;5.47;2.63;;;;;;;;;;5031696;28;20928;-78
2022/04/13 14:34:59;;;;;;;4.37;2.57;;;;;;;;;;5032796;28;20584;-76
2022/04/13 14:37:25;;;;;;;9.13;3.47;;;;;;;;;;5031577;28;20966;-77
2022/04/13 14:39:51;;;;;;;5.83;3.67;;;;;;;;;;5032894;28;20468;-77
2022/04/13 14:42:17;;;;;;;6.93;2.63;;;;;;;;;;5031476;28;20406;-75
2022/04/13 14:44:43;;;;;;;4.73;2.80;;;;;;;;;;5034644;28;20908;-78